Logo AVAMET
Benvolgut visitant, si us plau, ingressa Recuperar contrasenya

Redovà

Dades diàries. Acumulats / Últims 30 dies disponibles

Data Temperatura (°C) Humitat rel. (%) Pressió rel. (hPa) Vent (km/h) Precipitació
Mínima Mitjana Màxima Amplitud
tèrmica
Mínima Mitjana Màxima Mínima Mitjana Màxima Predom. Mitjana Ràfega
màxima
Total
(mm)
Índex-n
Mínima Mitjana Màxima Mínima Mitjana Màxima n
0 a 1
P0 max
mm 5'
Dades mensuals acumulades fins l'últim dia disponible
07/2019 21,0 23,0 26,5 28,1 29,9 33,5 38,9 17,9 20 63 89 1.010 1.015 1.019   4,0 38,6 0,2
Dades anuals acumulades fins l'últim dia disponible
2019 1,3 12,8 26,5 18,0 13,1 23,9 38,9 37,6 17 62 96 997 1.019 1.036   2,9 57,9 106,0
Últims 30 dies disponibles
20-07-2019 22,8     28,1     32,6 9,8 44 60 76 1.015 1.016 1.019 SE 5,2 38,6 0,0
19-07-2019 21,6     27,2     33,1 11,5 36 65 86 1.015 1.016 1.018 ESE 4,8 29,0 0,0
18-07-2019 21,6     26,9     33,7 12,1 33 66 85 1.015 1.016 1.017 SSO 2,5 20,9 0,0
17-07-2019 22,3     27,2     31,8 9,5 43 63 79 1.014 1.015 1.017 ESE 3,6 29,0 0,0
16-07-2019 25,5     27,7     31,3 5,8 54 71 87 1.015 1.016 1.018 ESE 6,2 29,0 0,0
15-07-2019 23,4     28,8     38,9 15,5 30 69 89 1.010 1.012 1.015 ESE 4,3 32,2 0,0
14-07-2019 24,6     29,8     37,3 12,7 26 58 87 1.011 1.012 1.014 SSO 4,7 29,0 0,0
13-07-2019 25,1     29,2     34,6 9,5 40 56 82 1.012 1.015 1.017 ESE 4,3 24,1 0,0
12-07-2019 22,4     29,0     36,9 14,5 28 51 71 1.015 1.016 1.018 ESE 3,0 25,7 0,0
11-07-2019 21,6     28,9     34,3 12,7 34 56 83 1.015 1.016 1.017 SSE 3,7 20,9 0,0
10-07-2019 21,0     26,7     31,9 10,9 44 65 86 1.015 1.016 1.017 ESE 3,9 24,1 0,0
09-07-2019 21,5     28,2     36,2 14,7 20 50 87 1.011 1.013 1.015 S 2,4 30,6 0,0
08-07-2019 23,8     26,5     29,9 6,1 37 73 84 1.011 1.012 1.014 SE 4,6 30,6 0,2
07-07-2019 26,5     31,7     22 54 75 1.010 1.013 1.016 SE 3,2 32,2 0,0
06-07-2019 23,8     29,4     35,9 12,1 40 67 86 1.012 1.015 1.017 SSE 4,2 25,7 0,0
05-07-2019 22,7     29,6     33,1 10,4 50 64 83 1.015 1.017 1.019 E 4,3 20,9 0,0
04-07-2019 21,7     26,5     31,3 9,6 47 67 80 1.015 1.017 1.018 SE 2,3 24,1 0,0
03-07-2019 21,7     26,7     31,6 9,9 42 66 89 1.014 1.016 1.017 SSE 4,2 29,0 0,0
02-07-2019 24,3     26,6     30,1 5,8 58 73 84 1.015 1.016 1.018 E 4,7 29,0 0,0
01-07-2019 21,9     27,0     32,1 10,2 55 64 81 1.015 1.017 1.018 S 3,9 30,6 0,0
30-06-2019 21,1     28,3     35,9 14,8 23 48 67 1.017 1.018 1.019 SSE 3,4 25,7 0,0
29-06-2019 22,1     29,3     36,3 14,2 27 48 69 1.015 1.016 1.018 ESE 3,3 25,7 0,0
28-06-2019 21,9     28,5     35,2 13,3 32 52 71 1.017 1.018 1.020 S 2,9 24,1 0,0
27-06-2019 23,2     28,4     32,8 9,6 40 58 81 1.018 1.019 1.020 S 7,0 49,9 0,0
26-06-2019 21,9     29,1     32,7 10,8 52 64 78 1.017 1.018 1.020 ESE 4,5 22,5 0,0
25-06-2019 20,1     25,6     31,2 11,1 53 72 88 1.016 1.017 1.018 S 2,8 22,5 0,0
24-06-2019 19,7     25,6     30,9 11,2 45 60 84 1.014 1.015 1.017 SE 3,3 24,1 0,0
23-06-2019 18,6     24,4     29,4 10,8 47 67 89 1.014 1.016 1.017 SE 4,1 25,7 0,0
22-06-2019 19,7     23,8     28,8 9,1 49 72 86 1.016 1.018 1.018 ESE 2,8 27,4 0,0
21-06-2019 20,6     24,2     29,2 8,6 57 73 88 1.014 1.015 1.018 ESE 3,7 25,7 0,0
Últims 13 mesos disponibles
06/2019 13,9 18,6 23,2 24,4 24,7 30,2 36,3 22,4 37 59 73 1.010 1.016 1.024 SSE 3,8 49,9 0,8
05/2019 11,6 15,4 21,2 20,6 21,6 26,3 32,7 21,1 46 64 75 1.008 1.017 1.026 SE 3,6 48,3 3,4
04/2019 8,3 12,1 15,8 16,3 14,6 21,7 29,9 21,6 46 67 90 1.002 1.015 1.027 S 2,7 57,9 80,4
03/2019 5,4 9,2 13,2 14,9 13,1 21,4 28,7 23,3 40 62 90 1.013 1.024 1.032 SSE 2,2 46,7 18,6
02/2019 4,9 7,8 11,9 13,1 14,2 19,9 28,3 23,4 37 63 78 999 1.027 1.034 SSE 2,3 51,5 0,0
01/2019 1,3 6,7 13,0 11,7 13,4 17,9 23,2 21,9 40 60 81 1.007 1.021 1.033 SSO 1,8 40,2 2,6
12/2018 5,1 7,8 11,8 12,3 15,3 18,3 21,0 15,9 59 73 83 1.024 1.030 1.033 E 0,8 29,0 0,2
10/2018 9,3 15,0 18,7 19,6 17,5 26,4 30,5 21,2 43 72 83 1.002 1.016 1.026 SSE 2,0 49,9 55,6
Tots els anys disponibles
Temperatura (°C)
Humitat relativa (%)
Velocitat del vent i ràfega màxima (km/h)
Direcció del vent (°)
Pressió (hPa)
Precipitació (mm)
Nota sobre les dades: s'avisa a l'usuari de la provisionalitat i no oficialitat d'aquestes dades
Logo AVAMET blanc
Web allotjada a Sollutia
Llicència de Creative CommonsLa web d'AVAMET i els seus continguts estan subjectes a una llicència de
Reconeixement - No Comercial - Compartir igual
Properes estacions: Altea - Club Nàutic d'Altea (Soci), Ares del Maestrat (Ajuntament Soci),      - - - - -      Últimes estacions: Catadau - Urb. Lloma Molina (Inforatge), Ontinyent - El Pilar (Soci), Asp - Poliesportiu (Soci) - - -